sensor_id;sensor_type;location;lat;lon;timestamp;P1;durP1;ratioP1;P2;durP2;ratioP2
20415;SDS011;10367;52.202;5.996;2022-12-10T00:02:15;54.67;;;20.20;;
20415;SDS011;10367;52.202;5.996;2022-12-10T00:04:45;65.23;;;23.30;;
20415;SDS011;10367;52.202;5.996;2022-12-10T00:07:17;56.10;;;20.13;;
20415;SDS011;10367;52.202;5.996;2022-12-10T00:09:46;54.33;;;18.47;;
20415;SDS011;10367;52.202;5.996;2022-12-10T00:12:15;62.83;;;20.27;;
20415;SDS011;10367;52.202;5.996;2022-12-10T00:14:44;57.07;;;20.60;;
20415;SDS011;10367;52.202;5.996;2022-12-10T00:17:13;45.33;;;18.57;;
20415;SDS011;10367;52.202;5.996;2022-12-10T00:19:41;63.27;;;22.13;;
20415;SDS011;10367;52.202;5.996;2022-12-10T00:22:12;54.03;;;19.23;;
20415;SDS011;10367;52.202;5.996;2022-12-10T00:24:41;51.30;;;18.23;;
20415;SDS011;10367;52.202;5.996;2022-12-10T00:27:10;46.23;;;18.23;;
20415;SDS011;10367;52.202;5.996;2022-12-10T00:29:38;44.27;;;17.80;;
20415;SDS011;10367;52.202;5.996;2022-12-10T00:32:07;51.87;;;17.57;;
20415;SDS011;10367;52.202;5.996;2022-12-10T00:34:36;61.43;;;19.83;;
20415;SDS011;10367;52.202;5.996;2022-12-10T00:37:05;53.70;;;18.37;;
20415;SDS011;10367;52.202;5.996;2022-12-10T00:39:35;48.20;;;16.93;;
20415;SDS011;10367;52.202;5.996;2022-12-10T00:42:06;49.27;;;18.93;;
20415;SDS011;10367;52.202;5.996;2022-12-10T00:44:35;47.33;;;15.30;;
20415;SDS011;10367;52.202;5.996;2022-12-10T00:47:06;47.87;;;18.20;;
20415;SDS011;10367;52.202;5.996;2022-12-10T00:49:35;53.87;;;16.40;;
20415;SDS011;10367;52.202;5.996;2022-12-10T00:52:04;49.20;;;16.87;;
20415;SDS011;10367;52.202;5.996;2022-12-10T00:54:33;50.67;;;17.77;;
20415;SDS011;10367;52.202;5.996;2022-12-10T00:57:03;51.17;;;17.90;;
20415;SDS011;10367;52.202;5.996;2022-12-10T00:59:32;50.97;;;17.50;;
20415;SDS011;10367;52.202;5.996;2022-12-10T01:02:01;49.23;;;17.07;;
20415;SDS011;10367;52.202;5.996;2022-12-10T01:04:30;55.13;;;19.37;;
20415;SDS011;10367;52.202;5.996;2022-12-10T01:06:59;42.57;;;15.13;;
20415;SDS011;10367;52.202;5.996;2022-12-10T01:09:33;58.40;;;19.70;;
20415;SDS011;10367;52.202;5.996;2022-12-10T01:12:04;43.10;;;17.70;;
20415;SDS011;10367;52.202;5.996;2022-12-10T01:14:33;56.30;;;18.77;;
20415;SDS011;10367;52.202;5.996;2022-12-10T01:17:04;57.30;;;19.90;;
20415;SDS011;10367;52.202;5.996;2022-12-10T01:19:34;44.10;;;14.10;;
20415;SDS011;10367;52.202;5.996;2022-12-10T01:22:04;45.57;;;17.20;;
20415;SDS011;10367;52.202;5.996;2022-12-10T01:24:33;59.17;;;18.83;;
20415;SDS011;10367;52.202;5.996;2022-12-10T01:27:05;46.43;;;17.57;;
20415;SDS011;10367;52.202;5.996;2022-12-10T01:29:34;41.70;;;14.87;;
20415;SDS011;10367;52.202;5.996;2022-12-10T01:32:05;40.00;;;15.90;;
20415;SDS011;10367;52.202;5.996;2022-12-10T01:34:34;53.43;;;19.23;;
20415;SDS011;10367;52.202;5.996;2022-12-10T01:37:03;51.93;;;18.00;;
20415;SDS011;10367;52.202;5.996;2022-12-10T01:39:32;53.50;;;18.47;;
20415;SDS011;10367;52.202;5.996;2022-12-10T01:42:01;57.63;;;19.70;;
20415;SDS011;10367;52.202;5.996;2022-12-10T01:47:36;49.37;;;17.30;;
20415;SDS011;10367;52.202;5.996;2022-12-10T01:50:06;39.57;;;14.80;;
20415;SDS011;10367;52.202;5.996;2022-12-10T01:52:37;50.27;;;18.50;;
20415;SDS011;10367;52.202;5.996;2022-12-10T01:58:13;64.73;;;20.30;;
20415;SDS011;10367;52.202;5.996;2022-12-10T02:00:54;57.53;;;18.60;;
20415;SDS011;10367;52.202;5.996;2022-12-10T02:03:31;48.53;;;16.27;;
20415;SDS011;10367;52.202;5.996;2022-12-10T02:06:11;52.97;;;18.90;;
20415;SDS011;10367;52.202;5.996;2022-12-10T02:08:51;62.37;;;20.27;;
20415;SDS011;10367;52.202;5.996;2022-12-10T02:11:31;50.43;;;18.57;;
20415;SDS011;10367;52.202;5.996;2022-12-10T02:14:17;52.77;;;19.20;;
20415;SDS011;10367;52.202;5.996;2022-12-10T02:16:51;44.23;;;16.37;;
20415;SDS011;10367;52.202;5.996;2022-12-10T02:19:27;56.93;;;19.00;;
20415;SDS011;10367;52.202;5.996;2022-12-10T02:22:08;55.77;;;18.27;;
20415;SDS011;10367;52.202;5.996;2022-12-10T02:24:42;45.63;;;17.57;;
20415;SDS011;10367;52.202;5.996;2022-12-10T02:27:14;51.53;;;17.60;;
20415;SDS011;10367;52.202;5.996;2022-12-10T02:29:49;47.97;;;18.97;;
20415;SDS011;10367;52.202;5.996;2022-12-10T02:32:23;58.50;;;19.87;;
20415;SDS011;10367;52.202;5.996;2022-12-10T02:34:57;57.37;;;19.83;;
20415;SDS011;10367;52.202;5.996;2022-12-10T02:37:40;48.83;;;17.50;;
20415;SDS011;10367;52.202;5.996;2022-12-10T02:40:15;60.73;;;19.57;;
20415;SDS011;10367;52.202;5.996;2022-12-10T02:42:47;47.13;;;17.87;;
20415;SDS011;10367;52.202;5.996;2022-12-10T02:45:21;58.27;;;17.37;;
20415;SDS011;10367;52.202;5.996;2022-12-10T02:47:53;54.03;;;20.23;;
20415;SDS011;10367;52.202;5.996;2022-12-10T02:50:25;48.63;;;18.77;;
20415;SDS011;10367;52.202;5.996;2022-12-10T02:52:56;52.57;;;17.87;;
20415;SDS011;10367;52.202;5.996;2022-12-10T02:55:36;51.43;;;16.33;;
20415;SDS011;10367;52.202;5.996;2022-12-10T02:58:19;34.47;;;13.20;;
20415;SDS011;10367;52.202;5.996;2022-12-10T03:00:57;55.17;;;17.80;;
20415;SDS011;10367;52.202;5.996;2022-12-10T03:03:34;49.70;;;18.87;;
20415;SDS011;10367;52.202;5.996;2022-12-10T03:06:12;46.03;;;16.67;;
20415;SDS011;10367;52.202;5.996;2022-12-10T03:08:47;43.00;;;16.50;;
20415;SDS011;10367;52.202;5.996;2022-12-10T03:11:19;49.20;;;17.43;;
20415;SDS011;10367;52.202;5.996;2022-12-10T03:13:53;54.37;;;17.67;;
20415;SDS011;10367;52.202;5.996;2022-12-10T03:16:28;62.50;;;18.67;;
20415;SDS011;10367;52.202;5.996;2022-12-10T03:19:03;55.37;;;18.77;;
20415;SDS011;10367;52.202;5.996;2022-12-10T03:21:35;58.93;;;19.17;;
20415;SDS011;10367;52.202;5.996;2022-12-10T03:24:07;54.57;;;20.77;;
20415;SDS011;10367;52.202;5.996;2022-12-10T03:26:37;49.83;;;16.70;;
20415;SDS011;10367;52.202;5.996;2022-12-10T03:29:08;46.47;;;15.70;;
20415;SDS011;10367;52.202;5.996;2022-12-10T03:31:40;49.43;;;16.37;;
20415;SDS011;10367;52.202;5.996;2022-12-10T03:34:09;53.07;;;18.17;;
20415;SDS011;10367;52.202;5.996;2022-12-10T03:36:38;53.30;;;18.37;;
20415;SDS011;10367;52.202;5.996;2022-12-10T03:39:09;53.60;;;17.00;;
20415;SDS011;10367;52.202;5.996;2022-12-10T03:41:39;47.03;;;16.70;;
20415;SDS011;10367;52.202;5.996;2022-12-10T03:44:08;59.83;;;19.70;;
20415;SDS011;10367;52.202;5.996;2022-12-10T03:46:36;58.77;;;17.97;;
20415;SDS011;10367;52.202;5.996;2022-12-10T03:49:06;46.57;;;16.23;;
20415;SDS011;10367;52.202;5.996;2022-12-10T03:51:35;52.83;;;18.63;;
20415;SDS011;10367;52.202;5.996;2022-12-10T03:54:05;58.63;;;21.00;;
20415;SDS011;10367;52.202;5.996;2022-12-10T03:56:34;57.80;;;18.90;;
20415;SDS011;10367;52.202;5.996;2022-12-10T03:59:02;48.20;;;19.23;;
20415;SDS011;10367;52.202;5.996;2022-12-10T04:01:31;53.17;;;18.83;;
20415;SDS011;10367;52.202;5.996;2022-12-10T04:04:00;62.27;;;20.70;;
20415;SDS011;10367;52.202;5.996;2022-12-10T04:06:30;53.53;;;19.47;;
20415;SDS011;10367;52.202;5.996;2022-12-10T04:08:59;53.97;;;18.73;;
20415;SDS011;10367;52.202;5.996;2022-12-10T04:11:27;49.67;;;18.47;;
20415;SDS011;10367;52.202;5.996;2022-12-10T04:13:56;62.37;;;20.03;;
20415;SDS011;10367;52.202;5.996;2022-12-10T04:16:42;53.93;;;20.77;;
20415;SDS011;10367;52.202;5.996;2022-12-10T04:19:12;52.20;;;19.30;;
20415;SDS011;10367;52.202;5.996;2022-12-10T04:21:43;55.53;;;17.87;;
20415;SDS011;10367;52.202;5.996;2022-12-10T04:24:31;62.13;;;19.60;;
20415;SDS011;10367;52.202;5.996;2022-12-10T04:27:18;56.67;;;18.97;;
20415;SDS011;10367;52.202;5.996;2022-12-10T04:29:49;48.97;;;16.03;;
20415;SDS011;10367;52.202;5.996;2022-12-10T04:32:19;68.70;;;22.13;;
20415;SDS011;10367;52.202;5.996;2022-12-10T04:34:48;71.60;;;20.47;;
20415;SDS011;10367;52.202;5.996;2022-12-10T04:37:18;53.07;;;20.30;;
20415;SDS011;10367;52.202;5.996;2022-12-10T04:39:48;68.33;;;22.00;;
20415;SDS011;10367;52.202;5.996;2022-12-10T04:42:17;46.00;;;18.47;;
20415;SDS011;10367;52.202;5.996;2022-12-10T04:44:46;66.60;;;20.70;;
20415;SDS011;10367;52.202;5.996;2022-12-10T04:47:15;56.33;;;18.83;;
20415;SDS011;10367;52.202;5.996;2022-12-10T04:49:44;63.67;;;18.40;;
20415;SDS011;10367;52.202;5.996;2022-12-10T04:52:13;64.20;;;20.80;;
20415;SDS011;10367;52.202;5.996;2022-12-10T04:54:44;68.00;;;21.93;;
20415;SDS011;10367;52.202;5.996;2022-12-10T04:57:13;56.07;;;21.30;;
20415;SDS011;10367;52.202;5.996;2022-12-10T04:59:42;67.57;;;19.40;;
20415;SDS011;10367;52.202;5.996;2022-12-10T05:02:11;64.40;;;21.83;;
20415;SDS011;10367;52.202;5.996;2022-12-10T05:04:39;59.13;;;20.73;;
20415;SDS011;10367;52.202;5.996;2022-12-10T05:07:08;63.10;;;21.33;;
20415;SDS011;10367;52.202;5.996;2022-12-10T05:09:37;53.43;;;18.53;;
20415;SDS011;10367;52.202;5.996;2022-12-10T05:12:07;65.13;;;22.93;;
20415;SDS011;10367;52.202;5.996;2022-12-10T05:14:36;64.10;;;21.67;;
20415;SDS011;10367;52.202;5.996;2022-12-10T05:17:05;62.67;;;21.33;;
20415;SDS011;10367;52.202;5.996;2022-12-10T05:19:33;66.50;;;21.93;;
20415;SDS011;10367;52.202;5.996;2022-12-10T05:22:02;67.57;;;23.27;;
20415;SDS011;10367;52.202;5.996;2022-12-10T05:24:48;64.17;;;22.10;;
20415;SDS011;10367;52.202;5.996;2022-12-10T05:27:18;63.10;;;21.57;;
20415;SDS011;10367;52.202;5.996;2022-12-10T05:29:47;58.00;;;20.43;;
20415;SDS011;10367;52.202;5.996;2022-12-10T05:32:16;68.90;;;23.50;;
20415;SDS011;10367;52.202;5.996;2022-12-10T05:34:44;68.87;;;22.33;;
20415;SDS011;10367;52.202;5.996;2022-12-10T05:37:13;73.20;;;22.93;;
20415;SDS011;10367;52.202;5.996;2022-12-10T05:39:42;77.27;;;23.13;;
20415;SDS011;10367;52.202;5.996;2022-12-10T05:42:10;68.03;;;21.70;;
20415;SDS011;10367;52.202;5.996;2022-12-10T05:44:41;74.70;;;21.83;;
20415;SDS011;10367;52.202;5.996;2022-12-10T05:47:09;60.93;;;22.37;;
20415;SDS011;10367;52.202;5.996;2022-12-10T05:49:38;75.03;;;23.33;;
20415;SDS011;10367;52.202;5.996;2022-12-10T05:52:07;79.67;;;23.07;;
20415;SDS011;10367;52.202;5.996;2022-12-10T05:54:35;64.10;;;19.97;;
20415;SDS011;10367;52.202;5.996;2022-12-10T05:57:04;70.40;;;23.07;;
20415;SDS011;10367;52.202;5.996;2022-12-10T05:59:33;72.67;;;22.13;;
20415;SDS011;10367;52.202;5.996;2022-12-10T06:02:03;74.13;;;23.73;;
20415;SDS011;10367;52.202;5.996;2022-12-10T06:04:31;63.23;;;21.50;;
20415;SDS011;10367;52.202;5.996;2022-12-10T06:07:00;70.67;;;21.77;;
20415;SDS011;10367;52.202;5.996;2022-12-10T06:09:36;68.80;;;23.33;;
20415;SDS011;10367;52.202;5.996;2022-12-10T06:12:05;68.13;;;19.63;;
20415;SDS011;10367;52.202;5.996;2022-12-10T06:14:34;64.67;;;21.10;;
20415;SDS011;10367;52.202;5.996;2022-12-10T06:17:04;77.03;;;22.43;;
20415;SDS011;10367;52.202;5.996;2022-12-10T06:19:33;61.10;;;19.80;;
20415;SDS011;10367;52.202;5.996;2022-12-10T06:22:01;62.13;;;21.23;;
20415;SDS011;10367;52.202;5.996;2022-12-10T06:24:30;65.40;;;21.53;;
20415;SDS011;10367;52.202;5.996;2022-12-10T06:26:59;50.63;;;19.73;;
20415;SDS011;10367;52.202;5.996;2022-12-10T06:29:27;62.43;;;22.03;;
20415;SDS011;10367;52.202;5.996;2022-12-10T06:31:56;73.33;;;22.03;;
20415;SDS011;10367;52.202;5.996;2022-12-10T06:34:26;59.03;;;20.77;;
20415;SDS011;10367;52.202;5.996;2022-12-10T06:36:55;62.77;;;21.60;;
20415;SDS011;10367;52.202;5.996;2022-12-10T06:39:25;69.40;;;21.70;;
20415;SDS011;10367;52.202;5.996;2022-12-10T06:41:53;66.60;;;21.87;;
20415;SDS011;10367;52.202;5.996;2022-12-10T06:44:25;76.23;;;22.77;;
20415;SDS011;10367;52.202;5.996;2022-12-10T06:46:54;69.40;;;21.00;;
20415;SDS011;10367;52.202;5.996;2022-12-10T06:49:22;80.83;;;23.03;;
20415;SDS011;10367;52.202;5.996;2022-12-10T06:51:53;65.87;;;20.17;;
20415;SDS011;10367;52.202;5.996;2022-12-10T06:54:21;70.47;;;21.50;;
20415;SDS011;10367;52.202;5.996;2022-12-10T06:56:50;64.93;;;20.93;;
20415;SDS011;10367;52.202;5.996;2022-12-10T06:59:19;73.03;;;22.00;;
20415;SDS011;10367;52.202;5.996;2022-12-10T07:01:48;65.83;;;21.33;;
20415;SDS011;10367;52.202;5.996;2022-12-10T07:04:17;64.97;;;20.03;;
20415;SDS011;10367;52.202;5.996;2022-12-10T07:06:45;57.57;;;19.80;;
20415;SDS011;10367;52.202;5.996;2022-12-10T07:09:15;79.50;;;20.47;;
20415;SDS011;10367;52.202;5.996;2022-12-10T07:11:44;80.53;;;24.63;;
20415;SDS011;10367;52.202;5.996;2022-12-10T07:14:13;66.10;;;19.77;;
20415;SDS011;10367;52.202;5.996;2022-12-10T07:16:43;66.90;;;22.10;;
20415;SDS011;10367;52.202;5.996;2022-12-10T07:19:12;76.50;;;21.07;;
20415;SDS011;10367;52.202;5.996;2022-12-10T07:21:41;68.70;;;20.97;;
20415;SDS011;10367;52.202;5.996;2022-12-10T07:24:14;81.23;;;23.03;;
20415;SDS011;10367;52.202;5.996;2022-12-10T07:26:45;80.97;;;24.47;;
20415;SDS011;10367;52.202;5.996;2022-12-10T07:29:15;87.23;;;24.27;;
20415;SDS011;10367;52.202;5.996;2022-12-10T07:31:45;73.03;;;23.70;;
20415;SDS011;10367;52.202;5.996;2022-12-10T07:34:15;80.67;;;23.27;;
20415;SDS011;10367;52.202;5.996;2022-12-10T07:36:44;85.37;;;24.63;;
20415;SDS011;10367;52.202;5.996;2022-12-10T07:39:15;79.80;;;22.97;;
20415;SDS011;10367;52.202;5.996;2022-12-10T07:41:46;73.87;;;22.80;;
20415;SDS011;10367;52.202;5.996;2022-12-10T07:44:17;64.37;;;20.33;;
20415;SDS011;10367;52.202;5.996;2022-12-10T07:46:48;72.20;;;22.57;;
20415;SDS011;10367;52.202;5.996;2022-12-10T07:49:17;76.40;;;22.40;;
20415;SDS011;10367;52.202;5.996;2022-12-10T07:51:47;76.40;;;22.50;;
20415;SDS011;10367;52.202;5.996;2022-12-10T07:54:18;67.67;;;20.97;;
20415;SDS011;10367;52.202;5.996;2022-12-10T07:56:47;79.60;;;24.23;;
20415;SDS011;10367;52.202;5.996;2022-12-10T07:59:16;75.10;;;21.60;;
20415;SDS011;10367;52.202;5.996;2022-12-10T08:01:44;63.00;;;20.23;;
20415;SDS011;10367;52.202;5.996;2022-12-10T08:04:13;87.57;;;24.97;;
20415;SDS011;10367;52.202;5.996;2022-12-10T08:06:41;79.50;;;23.43;;
20415;SDS011;10367;52.202;5.996;2022-12-10T08:09:10;86.60;;;23.40;;
20415;SDS011;10367;52.202;5.996;2022-12-10T08:11:41;77.17;;;23.63;;
20415;SDS011;10367;52.202;5.996;2022-12-10T08:14:09;70.13;;;21.50;;
20415;SDS011;10367;52.202;5.996;2022-12-10T08:16:38;86.90;;;25.17;;
20415;SDS011;10367;52.202;5.996;2022-12-10T08:19:08;82.73;;;23.10;;
20415;SDS011;10367;52.202;5.996;2022-12-10T08:21:43;87.27;;;25.70;;
20415;SDS011;10367;52.202;5.996;2022-12-10T08:24:12;89.57;;;22.33;;
20415;SDS011;10367;52.202;5.996;2022-12-10T08:26:42;70.40;;;22.13;;
20415;SDS011;10367;52.202;5.996;2022-12-10T08:29:11;80.33;;;22.47;;
20415;SDS011;10367;52.202;5.996;2022-12-10T08:31:39;91.73;;;24.30;;
20415;SDS011;10367;52.202;5.996;2022-12-10T08:34:10;63.20;;;21.50;;
20415;SDS011;10367;52.202;5.996;2022-12-10T08:36:40;75.50;;;22.63;;
20415;SDS011;10367;52.202;5.996;2022-12-10T08:39:09;64.23;;;21.67;;
20415;SDS011;10367;52.202;5.996;2022-12-10T08:41:43;84.07;;;24.07;;
20415;SDS011;10367;52.202;5.996;2022-12-10T08:44:12;76.60;;;22.10;;
20415;SDS011;10367;52.202;5.996;2022-12-10T08:46:42;73.57;;;23.63;;
20415;SDS011;10367;52.202;5.996;2022-12-10T08:49:10;69.30;;;22.10;;
20415;SDS011;10367;52.202;5.996;2022-12-10T08:51:39;68.93;;;22.63;;
20415;SDS011;10367;52.202;5.996;2022-12-10T08:54:08;68.50;;;21.40;;
20415;SDS011;10367;52.202;5.996;2022-12-10T08:56:37;79.03;;;24.93;;
20415;SDS011;10367;52.202;5.996;2022-12-10T08:59:08;76.90;;;22.97;;
20415;SDS011;10367;52.202;5.996;2022-12-10T09:01:36;78.27;;;23.33;;
20415;SDS011;10367;52.202;5.996;2022-12-10T09:04:05;58.10;;;18.73;;
20415;SDS011;10367;52.202;5.996;2022-12-10T09:06:34;81.90;;;23.73;;
20415;SDS011;10367;52.202;5.996;2022-12-10T09:09:03;75.00;;;22.43;;
20415;SDS011;10367;52.202;5.996;2022-12-10T09:11:32;66.93;;;20.67;;
20415;SDS011;10367;52.202;5.996;2022-12-10T09:14:02;64.83;;;22.23;;
20415;SDS011;10367;52.202;5.996;2022-12-10T09:16:32;61.30;;;21.70;;
20415;SDS011;10367;52.202;5.996;2022-12-10T09:19:03;62.90;;;20.90;;
20415;SDS011;10367;52.202;5.996;2022-12-10T09:21:32;64.03;;;19.23;;
20415;SDS011;10367;52.202;5.996;2022-12-10T09:24:00;58.17;;;19.57;;
20415;SDS011;10367;52.202;5.996;2022-12-10T09:26:29;80.43;;;22.30;;
20415;SDS011;10367;52.202;5.996;2022-12-10T09:28:58;70.67;;;21.60;;
20415;SDS011;10367;52.202;5.996;2022-12-10T09:31:27;72.60;;;22.00;;
20415;SDS011;10367;52.202;5.996;2022-12-10T09:33:57;69.50;;;20.23;;
20415;SDS011;10367;52.202;5.996;2022-12-10T09:36:26;59.63;;;19.77;;
20415;SDS011;10367;52.202;5.996;2022-12-10T09:38:59;72.20;;;18.90;;
20415;SDS011;10367;52.202;5.996;2022-12-10T09:41:41;78.23;;;25.43;;
20415;SDS011;10367;52.202;5.996;2022-12-10T09:44:21;59.77;;;19.57;;
20415;SDS011;10367;52.202;5.996;2022-12-10T09:47:00;67.57;;;22.17;;
20415;SDS011;10367;52.202;5.996;2022-12-10T09:49:33;59.17;;;19.63;;
20415;SDS011;10367;52.202;5.996;2022-12-10T09:52:11;66.53;;;22.20;;
20415;SDS011;10367;52.202;5.996;2022-12-10T09:54:42;75.93;;;22.43;;
20415;SDS011;10367;52.202;5.996;2022-12-10T09:57:16;62.53;;;21.57;;
20415;SDS011;10367;52.202;5.996;2022-12-10T09:59:49;54.20;;;18.10;;
20415;SDS011;10367;52.202;5.996;2022-12-10T10:02:20;55.50;;;18.80;;
20415;SDS011;10367;52.202;5.996;2022-12-10T10:04:54;55.70;;;18.40;;
20415;SDS011;10367;52.202;5.996;2022-12-10T10:07:28;47.87;;;17.37;;
20415;SDS011;10367;52.202;5.996;2022-12-10T10:09:59;49.30;;;18.20;;
20415;SDS011;10367;52.202;5.996;2022-12-10T10:12:31;56.27;;;19.03;;
20415;SDS011;10367;52.202;5.996;2022-12-10T10:15:09;63.07;;;20.57;;
20415;SDS011;10367;52.202;5.996;2022-12-10T10:17:41;74.73;;;19.77;;
20415;SDS011;10367;52.202;5.996;2022-12-10T10:20:14;55.80;;;19.77;;
20415;SDS011;10367;52.202;5.996;2022-12-10T10:22:43;52.93;;;18.27;;
20415;SDS011;10367;52.202;5.996;2022-12-10T10:25:12;69.47;;;18.60;;
20415;SDS011;10367;52.202;5.996;2022-12-10T10:27:43;57.00;;;19.27;;
20415;SDS011;10367;52.202;5.996;2022-12-10T10:30:13;51.67;;;18.13;;
20415;SDS011;10367;52.202;5.996;2022-12-10T10:32:44;64.73;;;19.87;;
20415;SDS011;10367;52.202;5.996;2022-12-10T10:35:22;65.47;;;21.40;;
20415;SDS011;10367;52.202;5.996;2022-12-10T10:37:56;56.67;;;18.97;;
20415;SDS011;10367;52.202;5.996;2022-12-10T10:40:29;52.93;;;17.30;;
20415;SDS011;10367;52.202;5.996;2022-12-10T10:43:00;55.40;;;17.90;;
20415;SDS011;10367;52.202;5.996;2022-12-10T10:48:17;61.23;;;21.73;;
20415;SDS011;10367;52.202;5.996;2022-12-10T10:50:49;54.43;;;18.90;;
20415;SDS011;10367;52.202;5.996;2022-12-10T10:53:29;48.93;;;18.77;;
20415;SDS011;10367;52.202;5.996;2022-12-10T10:56:04;55.87;;;17.43;;
20415;SDS011;10367;52.202;5.996;2022-12-10T10:58:35;65.63;;;18.40;;
20415;SDS011;10367;52.202;5.996;2022-12-10T11:01:12;53.73;;;17.67;;
20415;SDS011;10367;52.202;5.996;2022-12-10T11:03:45;56.03;;;18.97;;
20415;SDS011;10367;52.202;5.996;2022-12-10T11:06:16;42.93;;;15.37;;
20415;SDS011;10367;52.202;5.996;2022-12-10T11:08:45;45.03;;;16.70;;
20415;SDS011;10367;52.202;5.996;2022-12-10T11:11:17;47.67;;;15.97;;
20415;SDS011;10367;52.202;5.996;2022-12-10T11:13:48;45.37;;;15.70;;
20415;SDS011;10367;52.202;5.996;2022-12-10T11:16:18;62.20;;;18.03;;
20415;SDS011;10367;52.202;5.996;2022-12-10T11:18:52;49.60;;;15.17;;
20415;SDS011;10367;52.202;5.996;2022-12-10T11:21:25;53.30;;;16.50;;
20415;SDS011;10367;52.202;5.996;2022-12-10T11:23:55;48.73;;;16.63;;
20415;SDS011;10367;52.202;5.996;2022-12-10T11:26:28;46.17;;;16.10;;
20415;SDS011;10367;52.202;5.996;2022-12-10T11:29:11;45.87;;;16.63;;
20415;SDS011;10367;52.202;5.996;2022-12-10T11:31:51;47.47;;;16.77;;
20415;SDS011;10367;52.202;5.996;2022-12-10T11:34:30;46.97;;;15.90;;
20415;SDS011;10367;52.202;5.996;2022-12-10T11:37:08;51.67;;;16.00;;
20415;SDS011;10367;52.202;5.996;2022-12-10T11:39:51;45.40;;;15.83;;
20415;SDS011;10367;52.202;5.996;2022-12-10T11:42:40;55.77;;;19.27;;
20415;SDS011;10367;52.202;5.996;2022-12-10T11:45:18;46.43;;;17.00;;
20415;SDS011;10367;52.202;5.996;2022-12-10T11:47:58;42.17;;;15.80;;
20415;SDS011;10367;52.202;5.996;2022-12-10T11:50:39;49.10;;;16.47;;
20415;SDS011;10367;52.202;5.996;2022-12-10T11:53:32;40.20;;;15.83;;
20415;SDS011;10367;52.202;5.996;2022-12-10T11:56:15;41.20;;;14.73;;
20415;SDS011;10367;52.202;5.996;2022-12-10T11:59:02;47.40;;;15.70;;
20415;SDS011;10367;52.202;5.996;2022-12-10T12:01:49;42.50;;;15.63;;
20415;SDS011;10367;52.202;5.996;2022-12-10T12:04:41;46.10;;;16.43;;
20415;SDS011;10367;52.202;5.996;2022-12-10T12:07:29;38.17;;;12.97;;
20415;SDS011;10367;52.202;5.996;2022-12-10T12:10:21;37.43;;;14.80;;
20415;SDS011;10367;52.202;5.996;2022-12-10T12:13:20;39.63;;;14.63;;
20415;SDS011;10367;52.202;5.996;2022-12-10T12:15:53;35.77;;;12.37;;
20415;SDS011;10367;52.202;5.996;2022-12-10T12:18:27;36.93;;;14.00;;
20415;SDS011;10367;52.202;5.996;2022-12-10T12:21:04;41.63;;;15.23;;
20415;SDS011;10367;52.202;5.996;2022-12-10T12:23:41;51.53;;;17.83;;
20415;SDS011;10367;52.202;5.996;2022-12-10T12:26:17;52.37;;;17.53;;
20415;SDS011;10367;52.202;5.996;2022-12-10T12:28:52;45.77;;;16.40;;
20415;SDS011;10367;52.202;5.996;2022-12-10T12:31:29;60.47;;;17.37;;
20415;SDS011;10367;52.202;5.996;2022-12-10T12:34:01;47.07;;;15.43;;
20415;SDS011;10367;52.202;5.996;2022-12-10T12:36:33;42.30;;;15.17;;
20415;SDS011;10367;52.202;5.996;2022-12-10T12:39:05;43.07;;;15.20;;
20415;SDS011;10367;52.202;5.996;2022-12-10T12:41:41;54.17;;;17.10;;
20415;SDS011;10367;52.202;5.996;2022-12-10T12:44:17;42.03;;;15.37;;
20415;SDS011;10367;52.202;5.996;2022-12-10T12:46:52;47.33;;;16.10;;
20415;SDS011;10367;52.202;5.996;2022-12-10T12:49:23;47.90;;;15.67;;
20415;SDS011;10367;52.202;5.996;2022-12-10T12:51:56;40.50;;;15.17;;
20415;SDS011;10367;52.202;5.996;2022-12-10T12:54:29;48.77;;;15.70;;
20415;SDS011;10367;52.202;5.996;2022-12-10T12:57:00;37.00;;;14.03;;
20415;SDS011;10367;52.202;5.996;2022-12-10T12:59:39;49.83;;;16.20;;
20415;SDS011;10367;52.202;5.996;2022-12-10T13:02:21;35.20;;;14.07;;
20415;SDS011;10367;52.202;5.996;2022-12-10T13:04:57;33.27;;;12.63;;
20415;SDS011;10367;52.202;5.996;2022-12-10T13:07:28;41.90;;;15.13;;
20415;SDS011;10367;52.202;5.996;2022-12-10T13:10:18;34.97;;;13.73;;
20415;SDS011;10367;52.202;5.996;2022-12-10T13:13:06;41.23;;;14.63;;
20415;SDS011;10367;52.202;5.996;2022-12-10T13:15:45;40.33;;;13.87;;
20415;SDS011;10367;52.202;5.996;2022-12-10T13:18:22;43.63;;;14.67;;
20415;SDS011;10367;52.202;5.996;2022-12-10T13:21:16;44.50;;;14.43;;
20415;SDS011;10367;52.202;5.996;2022-12-10T13:24:09;43.07;;;15.33;;
20415;SDS011;10367;52.202;5.996;2022-12-10T13:26:41;38.63;;;13.90;;
20415;SDS011;10367;52.202;5.996;2022-12-10T13:29:43;42.73;;;14.97;;
20415;SDS011;10367;52.202;5.996;2022-12-10T13:32:14;41.70;;;15.10;;
20415;SDS011;10367;52.202;5.996;2022-12-10T13:34:44;46.33;;;14.30;;
20415;SDS011;10367;52.202;5.996;2022-12-10T13:37:18;35.03;;;13.20;;
20415;SDS011;10367;52.202;5.996;2022-12-10T13:40:09;39.33;;;15.27;;
20415;SDS011;10367;52.202;5.996;2022-12-10T13:42:43;31.37;;;13.07;;
20415;SDS011;10367;52.202;5.996;2022-12-10T13:45:33;32.90;;;13.40;;
20415;SDS011;10367;52.202;5.996;2022-12-10T13:48:17;37.83;;;13.23;;
20415;SDS011;10367;52.202;5.996;2022-12-10T13:53:49;34.97;;;12.57;;
20415;SDS011;10367;52.202;5.996;2022-12-10T13:56:29;39.87;;;14.07;;
20415;SDS011;10367;52.202;5.996;2022-12-10T13:59:13;48.40;;;13.60;;
20415;SDS011;10367;52.202;5.996;2022-12-10T14:01:54;39.03;;;13.93;;
20415;SDS011;10367;52.202;5.996;2022-12-10T14:04:41;49.90;;;15.93;;
20415;SDS011;10367;52.202;5.996;2022-12-10T14:07:30;33.77;;;13.47;;
20415;SDS011;10367;52.202;5.996;2022-12-10T14:09:59;31.53;;;12.67;;
20415;SDS011;10367;52.202;5.996;2022-12-10T14:12:29;38.70;;;14.10;;
20415;SDS011;10367;52.202;5.996;2022-12-10T14:15:02;39.10;;;14.63;;
20415;SDS011;10367;52.202;5.996;2022-12-10T14:17:36;38.40;;;13.53;;
20415;SDS011;10367;52.202;5.996;2022-12-10T14:20:08;40.07;;;14.57;;
20415;SDS011;10367;52.202;5.996;2022-12-10T14:22:44;50.90;;;15.37;;
20415;SDS011;10367;52.202;5.996;2022-12-10T14:25:19;41.27;;;14.10;;
20415;SDS011;10367;52.202;5.996;2022-12-10T14:27:50;39.83;;;12.93;;
20415;SDS011;10367;52.202;5.996;2022-12-10T14:30:20;46.30;;;14.30;;
20415;SDS011;10367;52.202;5.996;2022-12-10T14:32:53;33.50;;;14.20;;
20415;SDS011;10367;52.202;5.996;2022-12-10T14:35:24;37.93;;;13.67;;
20415;SDS011;10367;52.202;5.996;2022-12-10T14:37:56;43.80;;;13.87;;
20415;SDS011;10367;52.202;5.996;2022-12-10T14:40:27;49.33;;;15.07;;
20415;SDS011;10367;52.202;5.996;2022-12-10T14:43:00;38.77;;;13.90;;
20415;SDS011;10367;52.202;5.996;2022-12-10T14:45:36;41.23;;;13.63;;
20415;SDS011;10367;52.202;5.996;2022-12-10T14:48:12;44.60;;;15.83;;
20415;SDS011;10367;52.202;5.996;2022-12-10T14:50:43;42.67;;;14.97;;
20415;SDS011;10367;52.202;5.996;2022-12-10T14:53:14;48.13;;;14.87;;
20415;SDS011;10367;52.202;5.996;2022-12-10T14:55:53;36.60;;;13.77;;
20415;SDS011;10367;52.202;5.996;2022-12-10T14:58:26;38.40;;;13.10;;
20415;SDS011;10367;52.202;5.996;2022-12-10T15:01:09;37.77;;;13.90;;
20415;SDS011;10367;52.202;5.996;2022-12-10T15:03:45;38.13;;;14.87;;
20415;SDS011;10367;52.202;5.996;2022-12-10T15:06:16;38.73;;;12.37;;